createdAt,value
2023-03-12T00:04:14.590Z,-3.10
2023-03-12T00:09:37.901Z,-3.20
2023-03-12T00:15:01.123Z,-3.20
2023-03-12T00:20:23.606Z,-3.30
2023-03-12T00:25:46.891Z,-3.20
2023-03-12T00:31:19.118Z,-3.30
2023-03-12T00:36:41.484Z,-3.30
2023-03-12T00:42:03.190Z,-3.40
2023-03-12T00:47:24.949Z,-3.40
2023-03-12T00:52:46.678Z,-3.50
2023-03-12T00:58:08.788Z,-3.50
2023-03-12T01:03:30.756Z,-3.50
2023-03-12T01:08:52.781Z,-3.60
2023-03-12T01:14:14.567Z,-3.60
2023-03-12T01:19:36.132Z,-3.60
2023-03-12T01:24:58.653Z,-3.60
2023-03-12T01:30:20.412Z,-3.60
2023-03-12T01:35:42.827Z,-3.60
2023-03-12T01:41:04.765Z,-3.60
2023-03-12T01:46:35.932Z,-3.70
2023-03-12T01:52:07.516Z,-3.70
2023-03-12T01:57:51.464Z,-3.80
2023-03-12T02:03:15.843Z,-3.70
2023-03-12T02:08:41.563Z,-3.80
2023-03-12T02:14:03.595Z,-3.90
2023-03-12T02:19:48.950Z,-3.80
2023-03-12T02:25:16.703Z,-3.90
2023-03-12T02:30:40.202Z,-4.00
2023-03-12T02:36:02.947Z,-4.10
2023-03-12T02:41:32.679Z,-4.00
2023-03-12T02:46:57.219Z,-4.20
2023-03-12T02:52:19.121Z,-4.10
2023-03-12T02:57:40.914Z,-4.10
2023-03-12T03:03:06.281Z,-4.10
2023-03-12T03:08:27.885Z,-4.20
2023-03-12T03:13:52.044Z,-4.10
2023-03-12T03:19:13.801Z,-4.20
2023-03-12T03:24:36.391Z,-4.30
2023-03-12T03:29:57.926Z,-4.40
2023-03-12T03:35:19.926Z,-4.40
2023-03-12T03:40:41.540Z,-4.40
2023-03-12T03:46:06.229Z,-4.40
2023-03-12T03:51:32.475Z,-4.50
2023-03-12T03:56:59.251Z,-4.40
2023-03-12T04:02:20.971Z,-4.50
2023-03-12T04:07:43.272Z,-4.50
2023-03-12T04:13:05.424Z,-4.60
2023-03-12T04:18:27.068Z,-4.70
2023-03-12T04:23:49.314Z,-4.70
2023-03-12T04:29:12.028Z,-4.60
2023-03-12T04:34:34.682Z,-4.60
2023-03-12T04:39:57.002Z,-4.60
2023-03-12T04:45:19.084Z,-4.60
2023-03-12T04:50:41.465Z,-4.50
2023-03-12T04:56:03.534Z,-4.60
2023-03-12T05:01:32.966Z,-4.60
2023-03-12T05:06:57.364Z,-4.60
2023-03-12T05:12:19.067Z,-4.60
2023-03-12T05:17:41.365Z,-4.60
2023-03-12T05:23:03.619Z,-4.70
2023-03-12T05:28:28.627Z,-4.60
2023-03-12T05:33:55.524Z,-4.60
2023-03-12T05:39:18.028Z,-4.50
2023-03-12T05:44:40.358Z,-4.50
2023-03-12T05:50:02.386Z,-4.50
2023-03-12T05:55:25.022Z,-4.40
2023-03-12T06:00:48.034Z,-4.30
2023-03-12T06:06:10.607Z,-4.30
2023-03-12T06:11:34.118Z,-4.20
2023-03-12T06:16:56.223Z,-4.20
2023-03-12T06:22:17.849Z,-4.20
2023-03-12T06:27:39.523Z,-4.10
2023-03-12T06:33:01.170Z,-4.10
2023-03-12T06:38:22.838Z,-4.00
2023-03-12T06:43:45.232Z,-3.90
2023-03-12T06:49:06.971Z,-3.70
2023-03-12T06:54:28.425Z,-3.40
2023-03-12T06:59:50.707Z,-3.10
2023-03-12T07:05:12.222Z,-2.80
2023-03-12T07:10:34.021Z,-2.40
2023-03-12T07:15:55.664Z,-2.10
2023-03-12T07:21:22.874Z,-1.80
2023-03-12T07:26:44.689Z,-1.60
2023-03-12T07:32:06.524Z,-1.40
2023-03-12T07:37:28.249Z,-1.30
2023-03-12T07:42:51.553Z,-1.10
2023-03-12T07:48:13.758Z,-1.10
2023-03-12T07:53:35.298Z,-1.00
2023-03-12T07:58:57.208Z,-0.80
2023-03-12T08:04:18.927Z,-0.70
2023-03-12T08:09:40.950Z,-0.50
2023-03-12T08:15:02.374Z,-0.30
2023-03-12T08:20:24.011Z,-0.10
2023-03-12T08:25:50.078Z,0.20
2023-03-12T08:31:12.164Z,0.40
2023-03-12T08:36:34.029Z,0.60
2023-03-12T08:41:55.660Z,0.70
2023-03-12T08:47:17.336Z,0.90
2023-03-12T08:52:39.018Z,1.10
2023-03-12T08:58:01.512Z,1.40
2023-03-12T09:03:23.896Z,1.60
2023-03-12T09:08:46.112Z,2.00
2023-03-12T09:14:49.822Z,2.10
2023-03-12T09:19:50.243Z,2.10
2023-03-12T09:25:12.936Z,2.30
2023-03-12T09:30:34.659Z,2.20
2023-03-12T09:36:02.595Z,2.90
2023-03-12T09:41:32.063Z,2.90
2023-03-12T09:47:01.256Z,2.90
2023-03-12T09:52:34.426Z,2.80
2023-03-12T09:57:56.963Z,2.90
2023-03-12T10:03:57.756Z,2.90
2023-03-12T10:09:41.154Z,3.00
2023-03-12T10:15:21.512Z,3.30
2023-03-12T10:20:45.588Z,3.60
2023-03-12T10:26:26.518Z,3.50
2023-03-12T10:32:09.939Z,3.50
2023-03-12T10:37:47.066Z,3.60
2023-03-12T10:43:10.028Z,4.00
2023-03-12T10:48:31.639Z,4.10
2023-03-12T10:53:53.308Z,4.10
2023-03-12T10:59:22.631Z,4.20
2023-03-12T11:04:52.214Z,4.30
2023-03-12T11:10:14.348Z,4.30
2023-03-12T11:15:41.067Z,4.50
2023-03-12T11:21:14.308Z,4.50
2023-03-12T11:26:51.220Z,4.40
2023-03-12T11:32:28.836Z,4.50
2023-03-12T11:38:28.915Z,4.60
2023-03-12T11:44:05.533Z,4.80
2023-03-12T11:50:00.255Z,5.00
2023-03-12T11:55:41.929Z,4.90
2023-03-12T12:01:42.946Z,5.00
2023-03-12T12:07:46.577Z,4.90
2023-03-12T12:13:13.536Z,5.00
2023-03-12T12:18:50.094Z,4.90
2023-03-12T12:24:30.120Z,4.90
2023-03-12T12:30:16.183Z,4.90
2023-03-12T12:35:40.571Z,4.80
2023-03-12T12:41:18.296Z,4.90
2023-03-12T12:46:47.661Z,5.00
2023-03-12T12:52:12.818Z,4.70
2023-03-12T12:57:40.043Z,4.70
2023-03-12T13:03:02.037Z,4.70
2023-03-12T13:08:40.518Z,4.60
2023-03-12T13:14:11.448Z,4.60
2023-03-12T13:19:44.984Z,4.40
2023-03-12T13:25:30.996Z,4.30
2023-03-12T13:30:53.430Z,4.30
2023-03-12T13:36:23.509Z,4.40
2023-03-12T13:41:50.086Z,4.20
2023-03-12T13:47:11.690Z,4.20
2023-03-12T13:53:08.276Z,4.20
2023-03-12T13:58:30.412Z,3.90
2023-03-12T14:03:57.605Z,3.80
2023-03-12T14:09:40.218Z,3.80
2023-03-12T14:15:18.703Z,3.50
2023-03-12T14:20:41.824Z,3.70
2023-03-12T14:26:09.749Z,3.90
2023-03-12T14:31:31.894Z,4.10
2023-03-12T14:37:16.527Z,4.20
2023-03-12T14:42:38.289Z,4.20
2023-03-12T14:47:59.908Z,4.20
2023-03-12T14:53:27.185Z,4.00
2023-03-12T14:58:50.336Z,3.90
2023-03-12T15:04:20.725Z,3.90
2023-03-12T15:09:45.994Z,3.90
2023-03-12T15:15:11.440Z,3.90
2023-03-12T15:20:33.726Z,3.90
2023-03-12T15:26:17.210Z,3.90
2023-03-12T15:31:47.845Z,3.80
2023-03-12T15:37:41.418Z,3.90
2023-03-12T15:43:05.492Z,3.90
2023-03-12T15:48:31.130Z,3.90
2023-03-12T15:54:00.932Z,4.00
2023-03-12T15:59:28.152Z,4.00
2023-03-12T16:04:49.832Z,4.10
2023-03-12T16:10:15.629Z,4.10
2023-03-12T16:15:39.070Z,4.10
2023-03-12T16:21:00.813Z,4.20
2023-03-12T16:26:22.719Z,4.10
2023-03-12T16:31:44.793Z,4.20
2023-03-12T16:37:06.836Z,4.20
2023-03-12T16:42:28.116Z,4.30
2023-03-12T16:47:58.060Z,4.20
2023-03-12T16:53:20.584Z,4.30
2023-03-12T16:58:42.361Z,4.30
2023-03-12T17:04:05.124Z,4.30
2023-03-12T17:09:26.722Z,4.30
2023-03-12T17:14:48.893Z,4.40
2023-03-12T17:20:14.317Z,4.40
2023-03-12T17:25:38.871Z,4.40
2023-03-12T17:31:00.585Z,4.50
2023-03-12T17:36:22.200Z,4.60
2023-03-12T17:41:43.909Z,4.60
2023-03-12T17:47:05.877Z,4.70
2023-03-12T17:52:27.525Z,4.60
2023-03-12T17:57:49.138Z,4.70
2023-03-12T18:03:10.758Z,4.70
2023-03-12T18:08:32.321Z,4.70
2023-03-12T18:13:53.923Z,4.80
2023-03-12T18:19:16.194Z,4.90
2023-03-12T18:24:38.108Z,4.80
2023-03-12T18:29:59.682Z,4.90
2023-03-12T18:35:22.428Z,4.90
2023-03-12T18:40:44.091Z,5.00
2023-03-12T18:46:06.270Z,5.00
2023-03-12T18:51:27.970Z,5.10
2023-03-12T18:56:49.675Z,5.10
2023-03-12T19:02:14.832Z,5.10
2023-03-12T19:07:39.005Z,5.20
2023-03-12T19:13:00.781Z,5.20
2023-03-12T19:18:22.366Z,5.20
2023-03-12T19:23:44.704Z,5.30
2023-03-12T19:29:06.259Z,5.40
2023-03-12T19:34:28.106Z,5.40
2023-03-12T19:39:49.717Z,5.50
2023-03-12T19:45:11.810Z,5.60
2023-03-12T19:50:33.548Z,5.60
2023-03-12T19:55:55.105Z,5.70
2023-03-12T20:01:16.874Z,5.80
2023-03-12T20:06:38.934Z,5.70
2023-03-12T20:12:01.121Z,5.70
2023-03-12T20:17:22.852Z,5.80
2023-03-12T20:22:44.485Z,5.90
2023-03-12T20:28:06.454Z,5.90
2023-03-12T20:33:28.163Z,6.00
2023-03-12T20:38:50.426Z,6.10
2023-03-12T20:44:11.820Z,6.10
2023-03-12T20:49:33.388Z,6.10
2023-03-12T20:54:55.141Z,6.20
2023-03-12T21:00:17.069Z,6.30
2023-03-12T21:05:38.665Z,6.20
2023-03-12T21:11:00.595Z,6.30
2023-03-12T21:16:23.109Z,6.20
2023-03-12T21:21:44.667Z,6.40
2023-03-12T21:27:06.350Z,6.40
2023-03-12T21:32:28.546Z,6.40
2023-03-12T21:37:50.286Z,6.40
2023-03-12T21:43:11.807Z,6.40
2023-03-12T21:48:34.300Z,6.50
2023-03-12T21:53:58.090Z,6.50
2023-03-12T21:59:19.477Z,6.60
2023-03-12T22:04:41.318Z,6.60
2023-03-12T22:10:03.899Z,6.70
2023-03-12T22:15:25.447Z,6.70
2023-03-12T22:21:05.421Z,6.80
2023-03-12T22:26:27.669Z,6.80
2023-03-12T22:31:50.059Z,6.90
2023-03-12T22:37:11.946Z,6.90
2023-03-12T22:42:34.265Z,7.00
2023-03-12T22:47:55.567Z,7.10
2023-03-12T22:53:17.237Z,7.10
2023-03-12T22:58:39.367Z,7.10
2023-03-12T23:04:01.137Z,7.20
2023-03-12T23:09:22.767Z,7.30
2023-03-12T23:14:44.897Z,7.30
2023-03-12T23:20:09.195Z,7.30
2023-03-12T23:25:30.811Z,7.40
2023-03-12T23:30:58.142Z,7.40
2023-03-12T23:36:21.333Z,7.40
2023-03-12T23:41:42.900Z,7.50
2023-03-12T23:47:04.790Z,7.60
2023-03-12T23:52:29.416Z,7.50
2023-03-12T23:57:50.980Z,7.50
